Terminal Aerodrome Forecast
Issued by NWS Grand Forks, ND

Home | Current Version | Previous Version | Graphics & Text | Print | Product List | Glossary On
Versions: 1 2 3 4 5 6 7 8 9 10 11 12 13 14 15 16 17 18 19 20 21
000
FTUS43 KFGF 130821 AAA
TAFGFK
TAF AMD
KGFK 130821Z 1308/1406 34016G29KT P6SM OVC050
     FM131400 33027G40KT P6SM OVC015
     FM132000 35022G34KT P6SM BKN035
     FM132200 35016G24KT P6SM BKN020
     FM140000 35011KT P6SM BKN045
     FM140100 34009KT P6SM BKN025=

USA.gov is the U.S. government's official web portal to all federal, state and local government web resources and services.